sensor_id;sensor_type;location;lat;lon;timestamp;pressure;altitude;pressure_sealevel;temperature;humidity
71194;BME280;58903;47.210;8.618;2023-03-12T00:01:23;93782.63;;;25.58;40.97
71194;BME280;58903;47.210;8.618;2023-03-12T00:03:50;93781.34;;;25.59;40.78
71194;BME280;58903;47.210;8.618;2023-03-12T00:06:27;93778.59;;;25.59;41.39
71194;BME280;58903;47.210;8.618;2023-03-12T00:08:53;93786.09;;;25.58;40.56
71194;BME280;58903;47.210;8.618;2023-03-12T00:11:22;93786.09;;;25.58;40.43
71194;BME280;58903;47.210;8.618;2023-03-12T00:14:00;93785.59;;;25.60;40.70
71194;BME280;58903;47.210;8.618;2023-03-12T00:16:29;93786.84;;;25.59;41.01
71194;BME280;58903;47.210;8.618;2023-03-12T00:19:00;93782.38;;;25.56;40.50
71194;BME280;58903;47.210;8.618;2023-03-12T00:21:34;93778.91;;;25.55;41.15
71194;BME280;58903;47.210;8.618;2023-03-12T00:24:13;93781.88;;;25.57;41.18
71194;BME280;58903;47.210;8.618;2023-03-12T00:26:42;93780.59;;;25.58;40.40
71194;BME280;58903;47.210;8.618;2023-03-12T00:29:10;93779.13;;;25.57;40.55
71194;BME280;58903;47.210;8.618;2023-03-12T00:31:47;93777.63;;;25.56;40.62
71194;BME280;58903;47.210;8.618;2023-03-12T00:34:13;93774.38;;;25.58;41.38
71194;BME280;58903;47.210;8.618;2023-03-12T00:36:39;93786.09;;;25.58;40.37
71194;BME280;58903;47.210;8.618;2023-03-12T00:39:06;93780.59;;;25.58;41.07
71194;BME280;58903;47.210;8.618;2023-03-12T00:41:32;93778.59;;;25.59;41.24
71194;BME280;58903;47.210;8.618;2023-03-12T00:43:59;93787.91;;;25.56;40.89
71194;BME280;58903;47.210;8.618;2023-03-12T00:46:25;93779.13;;;25.57;40.77
71194;BME280;58903;47.210;8.618;2023-03-12T00:48:51;93784.63;;;25.57;41.00
71194;BME280;58903;47.210;8.618;2023-03-12T00:51:20;93785.38;;;25.58;41.42
71194;BME280;58903;47.210;8.618;2023-03-12T00:53:46;93786.66;;;25.57;41.05
71194;BME280;58903;47.210;8.618;2023-03-12T00:56:12;93787.19;;;25.55;40.58
71194;BME280;58903;47.210;8.618;2023-03-12T00:58:39;93791.41;;;25.56;40.34
71194;BME280;58903;47.210;8.618;2023-03-12T01:01:08;93795.44;;;25.55;41.10
71194;BME280;58903;47.210;8.618;2023-03-12T01:03:34;93792.69;;;25.55;40.31
71194;BME280;58903;47.210;8.618;2023-03-12T01:06:02;93799.66;;;25.56;40.86
71194;BME280;58903;47.210;8.618;2023-03-12T01:08:29;93790.44;;;25.54;40.98
71194;BME280;58903;47.210;8.618;2023-03-12T01:10:56;93802.19;;;25.54;40.22
71194;BME280;58903;47.210;8.618;2023-03-12T01:13:22;93800.19;;;25.55;40.67
71194;BME280;58903;47.210;8.618;2023-03-12T01:15:48;93795.22;;;25.53;40.74
71194;BME280;58903;47.210;8.618;2023-03-12T01:18:14;93793.41;;;25.56;40.66
71194;BME280;58903;47.210;8.618;2023-03-12T01:20:44;93797.44;;;25.55;40.82
71194;BME280;58903;47.210;8.618;2023-03-12T01:23:13;93786.44;;;25.55;40.79
71194;BME280;58903;47.210;8.618;2023-03-12T01:25:40;93789.94;;;25.55;40.99
71194;BME280;58903;47.210;8.618;2023-03-12T01:28:07;93782.72;;;25.52;41.06
71194;BME280;58903;47.210;8.618;2023-03-12T01:30:37;93790.44;;;25.54;40.46
71194;BME280;58903;47.210;8.618;2023-03-12T01:33:04;93792.97;;;25.52;40.44
71194;BME280;58903;47.210;8.618;2023-03-12T01:35:43;93791.94;;;25.55;40.73
71194;BME280;58903;47.210;8.618;2023-03-12T01:38:13;93795.44;;;25.55;40.14
71194;BME280;58903;47.210;8.618;2023-03-12T01:40:42;93794.69;;;25.55;40.32
71194;BME280;58903;47.210;8.618;2023-03-12T01:43:32;93787.47;;;25.52;40.07
71194;BME280;58903;47.210;8.618;2023-03-12T01:49:28;93795.94;;;25.54;40.00
71194;BME280;58903;47.210;8.618;2023-03-12T01:52:14;93798.47;;;25.52;40.21
71194;BME280;58903;47.210;8.618;2023-03-12T01:55:12;93789.50;;;25.51;40.37
71194;BME280;58903;47.210;8.618;2023-03-12T01:58:15;93791.50;;;25.51;40.02
71194;BME280;58903;47.210;8.618;2023-03-12T02:00:41;93788.22;;;25.52;40.03
71194;BME280;58903;47.210;8.618;2023-03-12T02:03:08;93790.22;;;25.52;40.66
71194;BME280;58903;47.210;8.618;2023-03-12T02:05:43;93791.50;;;25.51;40.00
71194;BME280;58903;47.210;8.618;2023-03-12T02:08:37;93789.50;;;25.51;40.43
71194;BME280;58903;47.210;8.618;2023-03-12T02:11:05;93795.94;;;25.54;40.38
71194;BME280;58903;47.210;8.618;2023-03-12T02:13:32;93797.00;;;25.51;40.26
71194;BME280;58903;47.210;8.618;2023-03-12T02:15:58;93798.47;;;25.52;40.17
71194;BME280;58903;47.210;8.618;2023-03-12T02:18:26;93801.44;;;25.54;40.25
71194;BME280;58903;47.210;8.618;2023-03-12T02:21:09;93804.19;;;25.54;40.89
71194;BME280;58903;47.210;8.618;2023-03-12T02:26:09;93802.19;;;25.54;40.13
71194;BME280;58903;47.210;8.618;2023-03-12T02:28:37;93800.72;;;25.53;39.68
71194;BME280;58903;47.210;8.618;2023-03-12T02:31:13;93799.22;;;25.52;40.02
71194;BME280;58903;47.210;8.618;2023-03-12T02:33:49;93806.75;;;25.52;40.12
71194;BME280;58903;47.210;8.618;2023-03-12T02:36:19;93802.50;;;25.51;40.27
71194;BME280;58903;47.210;8.618;2023-03-12T02:39:12;93804.19;;;25.54;40.66
71194;BME280;58903;47.210;8.618;2023-03-12T02:42:16;93804.72;;;25.52;40.83
71194;BME280;58903;47.210;8.618;2023-03-12T02:44:55;93808.78;;;25.51;40.05
71194;BME280;58903;47.210;8.618;2023-03-12T02:47:29;93809.50;;;25.52;39.71
71194;BME280;58903;47.210;8.618;2023-03-12T02:50:16;93809.50;;;25.52;39.75
71194;BME280;58903;47.210;8.618;2023-03-12T02:53:01;93814.50;;;25.53;40.26
71194;BME280;58903;47.210;8.618;2023-03-12T02:55:36;93808.03;;;25.51;40.45
71194;BME280;58903;47.210;8.618;2023-03-12T02:58:04;93815.75;;;25.52;40.10
71194;BME280;58903;47.210;8.618;2023-03-12T03:00:41;93817.53;;;25.50;40.03
71194;BME280;58903;47.210;8.618;2023-03-12T03:03:07;93814.28;;;25.51;40.27
71194;BME280;58903;47.210;8.618;2023-03-12T03:05:38;93810.78;;;25.51;40.11
71194;BME280;58903;47.210;8.618;2023-03-12T03:08:33;93817.03;;;25.51;40.56
71194;BME280;58903;47.210;8.618;2023-03-12T03:11:01;93815.75;;;25.52;40.17
71194;BME280;58903;47.210;8.618;2023-03-12T03:13:29;93819.03;;;25.51;39.64
71194;BME280;58903;47.210;8.618;2023-03-12T03:16:05;93817.97;;;25.54;40.03
71194;BME280;58903;47.210;8.618;2023-03-12T03:19:03;93816.50;;;25.53;40.19
71194;BME280;58903;47.210;8.618;2023-03-12T03:21:32;93808.03;;;25.51;39.71
71194;BME280;58903;47.210;8.618;2023-03-12T03:24:09;93807.28;;;25.50;39.79
71194;BME280;58903;47.210;8.618;2023-03-12T03:26:51;93801.75;;;25.50;39.77
71194;BME280;58903;47.210;8.618;2023-03-12T03:29:17;93810.03;;;25.50;40.55
71194;BME280;58903;47.210;8.618;2023-03-12T03:31:46;93801.00;;;25.50;40.07
71194;BME280;58903;47.210;8.618;2023-03-12T03:34:19;93810.25;;;25.52;40.53
71194;BME280;58903;47.210;8.618;2023-03-12T03:36:51;93797.75;;;25.51;40.14
71194;BME280;58903;47.210;8.618;2023-03-12T03:39:19;93801.97;;;25.52;40.02
71194;BME280;58903;47.210;8.618;2023-03-12T03:41:53;93801.00;;;25.50;40.06
71194;BME280;58903;47.210;8.618;2023-03-12T03:44:19;93803.47;;;25.53;39.73
71194;BME280;58903;47.210;8.618;2023-03-12T03:47:00;93809.50;;;25.52;40.11
71194;BME280;58903;47.210;8.618;2023-03-12T03:49:28;93810.25;;;25.52;39.89
71194;BME280;58903;47.210;8.618;2023-03-12T03:51:55;93795.00;;;25.51;40.30
71194;BME280;58903;47.210;8.618;2023-03-12T03:54:23;93794.03;;;25.49;39.45
71194;BME280;58903;47.210;8.618;2023-03-12T03:57:01;93796.25;;;25.50;39.75
71194;BME280;58903;47.210;8.618;2023-03-12T03:59:38;93803.25;;;25.51;39.82
71194;BME280;58903;47.210;8.618;2023-03-12T04:02:06;93804.72;;;25.52;39.38
71194;BME280;58903;47.210;8.618;2023-03-12T04:04:42;93787.78;;;25.48;40.00
71194;BME280;58903;47.210;8.618;2023-03-12T04:07:08;93781.53;;;25.48;39.54
71194;BME280;58903;47.210;8.618;2023-03-12T04:09:38;93785.25;;;25.50;39.46
71194;BME280;58903;47.210;8.618;2023-03-12T04:12:31;93780.47;;;25.51;40.20
71194;BME280;58903;47.210;8.618;2023-03-12T04:14:57;93772.72;;;25.49;39.75
71194;BME280;58903;47.210;8.618;2023-03-12T04:17:23;93774.22;;;25.50;39.74
71194;BME280;58903;47.210;8.618;2023-03-12T04:19:49;93776.97;;;25.50;39.82
71194;BME280;58903;47.210;8.618;2023-03-12T04:22:15;93776.22;;;25.50;40.17
71194;BME280;58903;47.210;8.618;2023-03-12T04:24:42;93786.50;;;25.49;39.24
71194;BME280;58903;47.210;8.618;2023-03-12T04:27:09;93786.75;;;25.51;39.77
71194;BME280;58903;47.210;8.618;2023-03-12T04:29:36;93781.22;;;25.51;40.22
71194;BME280;58903;47.210;8.618;2023-03-12T04:32:05;93786.00;;;25.51;39.31
71194;BME280;58903;47.210;8.618;2023-03-12T04:34:32;93792.97;;;25.52;39.37
71194;BME280;58903;47.210;8.618;2023-03-12T04:37:05;93786.50;;;25.49;40.38
71194;BME280;58903;47.210;8.618;2023-03-12T04:39:31;93790.00;;;25.50;39.58
71194;BME280;58903;47.210;8.618;2023-03-12T04:41:56;93790.00;;;25.50;39.38
71194;BME280;58903;47.210;8.618;2023-03-12T04:44:22;93794.03;;;25.49;38.99
71194;BME280;58903;47.210;8.618;2023-03-12T04:46:48;93799.53;;;25.49;39.34
71194;BME280;58903;47.210;8.618;2023-03-12T04:49:15;93791.56;;;25.45;40.07
71194;BME280;58903;47.210;8.618;2023-03-12T04:51:44;93792.53;;;25.48;40.14
71194;BME280;58903;47.210;8.618;2023-03-12T04:54:18;93796.56;;;25.47;39.26
71194;BME280;58903;47.210;8.618;2023-03-12T04:57:02;93794.75;;;25.49;39.65
71194;BME280;58903;47.210;8.618;2023-03-12T04:59:28;93784.50;;;25.50;39.19
71194;BME280;58903;47.210;8.618;2023-03-12T05:01:56;93778.25;;;25.49;39.89
71194;BME280;58903;47.210;8.618;2023-03-12T05:04:24;93767.22;;;25.49;39.67
71194;BME280;58903;47.210;8.618;2023-03-12T05:06:51;93766.50;;;25.49;40.11
71194;BME280;58903;47.210;8.618;2023-03-12T05:09:19;93772.72;;;25.49;39.65
71194;BME280;58903;47.210;8.618;2023-03-12T05:11:45;93769.97;;;25.49;40.06
71194;BME280;58903;47.210;8.618;2023-03-12T05:14:13;93774.53;;;25.47;40.07
71194;BME280;58903;47.210;8.618;2023-03-12T05:16:46;93778.25;;;25.49;40.11
71194;BME280;58903;47.210;8.618;2023-03-12T05:19:14;93772.72;;;25.49;39.50
71194;BME280;58903;47.210;8.618;2023-03-12T05:21:41;93772.00;;;25.49;39.34
71194;BME280;58903;47.210;8.618;2023-03-12T05:24:09;93772.72;;;25.49;39.67
71194;BME280;58903;47.210;8.618;2023-03-12T05:26:42;93778.25;;;25.49;39.74
71194;BME280;58903;47.210;8.618;2023-03-12T05:29:09;93783.03;;;25.49;39.79
71194;BME280;58903;47.210;8.618;2023-03-12T05:31:37;93785.03;;;25.48;39.96
71194;BME280;58903;47.210;8.618;2023-03-12T05:34:10;93790.00;;;25.50;39.65
71194;BME280;58903;47.210;8.618;2023-03-12T05:36:36;93788.53;;;25.49;39.07
71194;BME280;58903;47.210;8.618;2023-03-12T05:39:04;93798.78;;;25.48;39.97
71194;BME280;58903;47.210;8.618;2023-03-12T05:41:33;93812.03;;;25.50;39.39
71194;BME280;58903;47.210;8.618;2023-03-12T05:43:59;93805.06;;;25.49;39.87
71194;BME280;58903;47.210;8.618;2023-03-12T05:46:34;93799.31;;;25.47;39.20
71194;BME280;58903;47.210;8.618;2023-03-12T05:49:08;93786.28;;;25.47;39.02
71194;BME280;58903;47.210;8.618;2023-03-12T05:51:35;93804.31;;;25.48;39.57
71194;BME280;58903;47.210;8.618;2023-03-12T05:54:02;93801.53;;;25.48;39.68
71194;BME280;58903;47.210;8.618;2023-03-12T05:56:32;93801.53;;;25.48;39.90
71194;BME280;58903;47.210;8.618;2023-03-12T05:59:15;93799.31;;;25.47;39.34
71194;BME280;58903;47.210;8.618;2023-03-12T06:01:45;93784.06;;;25.46;40.13
71194;BME280;58903;47.210;8.618;2023-03-12T06:04:12;93782.81;;;25.47;39.02
71194;BME280;58903;47.210;8.618;2023-03-12T06:06:38;93794.53;;;25.47;39.98
71194;BME280;58903;47.210;8.618;2023-03-12T06:09:05;93789.78;;;25.48;38.96
71194;BME280;58903;47.210;8.618;2023-03-12T06:11:32;93792.53;;;25.48;39.40
71194;BME280;58903;47.210;8.618;2023-03-12T06:14:04;93799.84;;;25.45;38.98
71194;BME280;58903;47.210;8.618;2023-03-12T06:16:35;93826.31;;;25.48;39.38
71194;BME280;58903;47.210;8.618;2023-03-12T06:19:05;93873.66;;;25.47;39.80
71194;BME280;58903;47.210;8.618;2023-03-12T06:21:34;93877.34;;;25.49;39.50
71194;BME280;58903;47.210;8.618;2023-03-12T06:24:03;93873.34;;;25.50;39.18
71194;BME280;58903;47.210;8.618;2023-03-12T06:26:37;93885.88;;;25.51;39.49
71194;BME280;58903;47.210;8.618;2023-03-12T06:29:05;93880.88;;;25.50;39.63
71194;BME280;58903;47.210;8.618;2023-03-12T06:31:33;93881.41;;;25.48;39.57
71194;BME280;58903;47.210;8.618;2023-03-12T06:34:03;93884.38;;;25.50;39.71
71194;BME280;58903;47.210;8.618;2023-03-12T06:36:36;93877.13;;;25.47;39.44
71194;BME280;58903;47.210;8.618;2023-03-12T06:39:04;93883.63;;;25.50;39.77
71194;BME280;58903;47.210;8.618;2023-03-12T06:41:32;93867.09;;;25.50;39.02
71194;BME280;58903;47.210;8.618;2023-03-12T06:44:15;93855.34;;;25.49;38.97
71194;BME280;58903;47.210;8.618;2023-03-12T06:46:48;93840.31;;;25.50;39.05
71194;BME280;58903;47.210;8.618;2023-03-12T06:49:14;93851.09;;;25.48;39.66
71194;BME280;58903;47.210;8.618;2023-03-12T06:51:56;93837.34;;;25.48;39.70
71194;BME280;58903;47.210;8.618;2023-03-12T06:54:41;93848.56;;;25.50;39.64
71194;BME280;58903;47.210;8.618;2023-03-12T06:57:11;93849.81;;;25.49;39.72
71194;BME280;58903;47.210;8.618;2023-03-12T06:59:37;93861.09;;;25.51;38.93
71194;BME280;58903;47.210;8.618;2023-03-12T07:02:14;93865.84;;;25.51;39.55
71194;BME280;58903;47.210;8.618;2023-03-12T07:04:43;93863.84;;;25.51;39.04
71194;BME280;58903;47.210;8.618;2023-03-12T07:07:26;93868.28;;;25.54;39.03
71194;BME280;58903;47.210;8.618;2023-03-12T07:09:58;93868.28;;;25.54;40.04
71194;BME280;58903;47.210;8.618;2023-03-12T07:12:24;93873.03;;;25.54;39.58
71194;BME280;58903;47.210;8.618;2023-03-12T07:15:00;93874.84;;;25.51;39.49
71194;BME280;58903;47.210;8.618;2023-03-12T07:17:27;93883.34;;;25.53;39.69
71194;BME280;58903;47.210;8.618;2023-03-12T07:19:56;93887.34;;;25.52;38.96
71194;BME280;58903;47.210;8.618;2023-03-12T07:22:27;93873.56;;;25.52;39.16
71194;BME280;58903;47.210;8.618;2023-03-12T07:25:09;93883.34;;;25.53;39.20
71194;BME280;58903;47.210;8.618;2023-03-12T07:27:51;93897.31;;;25.55;39.79
71194;BME280;58903;47.210;8.618;2023-03-12T07:30:32;93893.06;;;25.54;39.48
71194;BME280;58903;47.210;8.618;2023-03-12T07:33:00;93899.00;;;25.58;39.54
71194;BME280;58903;47.210;8.618;2023-03-12T07:35:27;93917.78;;;25.60;39.84
71194;BME280;58903;47.210;8.618;2023-03-12T07:37:54;93910.94;;;25.66;40.02
71194;BME280;58903;47.210;8.618;2023-03-12T07:40:22;93918.13;;;25.69;39.39
71194;BME280;58903;47.210;8.618;2023-03-12T07:42:49;93924.72;;;25.66;38.61
71194;BME280;58903;47.210;8.618;2023-03-12T07:45:18;93924.19;;;25.68;39.44
71194;BME280;58903;47.210;8.618;2023-03-12T07:47:46;93922.47;;;25.65;39.85
71194;BME280;58903;47.210;8.618;2023-03-12T07:50:14;93920.00;;;25.61;39.57
71194;BME280;58903;47.210;8.618;2023-03-12T07:52:52;93922.56;;;25.59;40.43
71194;BME280;58903;47.210;8.618;2023-03-12T07:55:38;93925.53;;;25.61;40.12
71194;BME280;58903;47.210;8.618;2023-03-12T07:58:21;93915.25;;;25.62;40.06
71194;BME280;58903;47.210;8.618;2023-03-12T08:00:48;93917.25;;;25.61;39.76
71194;BME280;58903;47.210;8.618;2023-03-12T08:03:18;93913.00;;;25.60;39.76
71194;BME280;58903;47.210;8.618;2023-03-12T08:06:04;93911.00;;;25.61;39.70
71194;BME280;58903;47.210;8.618;2023-03-12T08:08:31;93921.25;;;25.60;39.57
71194;BME280;58903;47.210;8.618;2023-03-12T08:11:05;93922.75;;;25.61;39.41
71194;BME280;58903;47.210;8.618;2023-03-12T08:13:31;93929.75;;;25.62;39.74
71194;BME280;58903;47.210;8.618;2023-03-12T08:16:04;93929.03;;;25.62;39.87
71194;BME280;58903;47.210;8.618;2023-03-12T08:18:30;93931.03;;;25.61;39.46
71194;BME280;58903;47.210;8.618;2023-03-12T08:21:14;93935.03;;;25.60;39.50
71194;BME280;58903;47.210;8.618;2023-03-12T08:23:42;93937.50;;;25.64;39.80
71194;BME280;58903;47.210;8.618;2023-03-12T08:26:08;93935.19;;;25.68;39.80
71194;BME280;58903;47.210;8.618;2023-03-12T08:28:49;93931.63;;;25.73;39.58
71194;BME280;58903;47.210;8.618;2023-03-12T08:31:15;93942.88;;;25.75;39.50
71194;BME280;58903;47.210;8.618;2023-03-12T08:33:46;93945.84;;;25.77;39.41
71194;BME280;58903;47.210;8.618;2023-03-12T08:36:41;93947.84;;;25.76;39.11
71194;BME280;58903;47.210;8.618;2023-03-12T08:39:07;93950.91;;;25.73;39.63
71194;BME280;58903;47.210;8.618;2023-03-12T08:41:33;93960.97;;;25.70;40.15
71194;BME280;58903;47.210;8.618;2023-03-12T08:44:11;93964.47;;;25.71;39.71
71194;BME280;58903;47.210;8.618;2023-03-12T08:46:46;93969.72;;;25.69;39.59
71194;BME280;58903;47.210;8.618;2023-03-12T08:49:22;93964.53;;;25.65;39.76
71194;BME280;58903;47.210;8.618;2023-03-12T08:51:48;93963.50;;;25.68;40.71
71194;BME280;58903;47.210;8.618;2023-03-12T08:54:29;93964.75;;;25.67;40.54
71194;BME280;58903;47.210;8.618;2023-03-12T08:57:07;93963.72;;;25.70;40.07
71194;BME280;58903;47.210;8.618;2023-03-12T08:59:35;93962.22;;;25.69;39.75
71194;BME280;58903;47.210;8.618;2023-03-12T09:02:01;93961.47;;;25.69;40.21
71194;BME280;58903;47.210;8.618;2023-03-12T09:04:27;93964.00;;;25.67;40.41
71194;BME280;58903;47.210;8.618;2023-03-12T09:06:53;93965.28;;;25.66;40.98
71194;BME280;58903;47.210;8.618;2023-03-12T09:09:30;93959.75;;;25.66;40.52
71194;BME280;58903;47.210;8.618;2023-03-12T09:12:05;93961.75;;;25.65;40.75
71194;BME280;58903;47.210;8.618;2023-03-12T09:14:38;93965.81;;;25.64;40.41
71194;BME280;58903;47.210;8.618;2023-03-12T09:17:05;93965.06;;;25.64;40.65
71194;BME280;58903;47.210;8.618;2023-03-12T09:19:31;93961.00;;;25.65;40.64
71194;BME280;58903;47.210;8.618;2023-03-12T09:22:00;93969.81;;;25.63;41.01
71194;BME280;58903;47.210;8.618;2023-03-12T09:24:28;93971.81;;;25.63;40.55
71194;BME280;58903;47.210;8.618;2023-03-12T09:27:05;93967.06;;;25.63;40.58
71194;BME280;58903;47.210;8.618;2023-03-12T09:29:46;93962.06;;;25.62;40.47
71194;BME280;58903;47.210;8.618;2023-03-12T09:32:24;93972.56;;;25.63;39.97
71194;BME280;58903;47.210;8.618;2023-03-12T09:38:44;93975.53;;;25.65;39.88
71194;BME280;58903;47.210;8.618;2023-03-12T09:41:22;93978.28;;;25.65;40.82
71194;BME280;58903;47.210;8.618;2023-03-12T09:44:16;93973.31;;;25.64;40.05
71194;BME280;58903;47.210;8.618;2023-03-12T09:46:52;93980.81;;;25.63;40.27
71194;BME280;58903;47.210;8.618;2023-03-12T09:49:39;93983.34;;;25.61;40.55
71194;BME280;58903;47.210;8.618;2023-03-12T09:52:43;93985.59;;;25.63;41.00
71194;BME280;58903;47.210;8.618;2023-03-12T09:55:24;93989.09;;;25.63;40.73
71194;BME280;58903;47.210;8.618;2023-03-12T10:07:09;93990.59;;;25.64;40.91
71194;BME280;58903;47.210;8.618;2023-03-12T10:10:05;94009.88;;;25.64;40.82
71194;BME280;58903;47.210;8.618;2023-03-12T10:15:34;94010.59;;;25.65;41.02
71194;BME280;58903;47.210;8.618;2023-03-12T10:26:59;94015.88;;;25.63;39.91
71194;BME280;58903;47.210;8.618;2023-03-12T10:29:40;94020.13;;;25.64;40.71
71194;BME280;58903;47.210;8.618;2023-03-12T10:32:40;94020.13;;;25.64;41.02
71194;BME280;58903;47.210;8.618;2023-03-12T10:35:22;94011.66;;;25.62;41.11
71194;BME280;58903;47.210;8.618;2023-03-12T10:38:10;94015.13;;;25.62;40.75
71194;BME280;58903;47.210;8.618;2023-03-12T10:40:40;94020.13;;;25.64;40.66
71194;BME280;58903;47.210;8.618;2023-03-12T10:43:14;94014.91;;;25.60;40.31
71194;BME280;58903;47.210;8.618;2023-03-12T10:54:42;94033.91;;;25.64;40.76
71194;BME280;58903;47.210;8.618;2023-03-12T10:57:19;94047.16;;;25.65;40.37
71194;BME280;58903;47.210;8.618;2023-03-12T11:00:09;94069.19;;;25.65;40.91
71194;BME280;58903;47.210;8.618;2023-03-12T11:02:44;94064.94;;;25.64;39.89
71194;BME280;58903;47.210;8.618;2023-03-12T11:05:23;94064.94;;;25.64;40.34
71194;BME280;58903;47.210;8.618;2023-03-12T11:08:00;94077.44;;;25.65;40.81
71194;BME280;58903;47.210;8.618;2023-03-12T11:10:57;94082.97;;;25.65;40.02
71194;BME280;58903;47.210;8.618;2023-03-12T11:19:41;94099.47;;;25.65;39.80
71194;BME280;58903;47.210;8.618;2023-03-12T11:22:09;94106.25;;;25.64;40.45
71194;BME280;58903;47.210;8.618;2023-03-12T11:25:03;94110.03;;;25.61;39.94
71194;BME280;58903;47.210;8.618;2023-03-12T11:28:01;94109.03;;;25.64;40.24
71194;BME280;58903;47.210;8.618;2023-03-12T11:30:38;94106.25;;;25.64;40.37
71194;BME280;58903;47.210;8.618;2023-03-12T11:33:34;94109.03;;;25.64;39.87
71194;BME280;58903;47.210;8.618;2023-03-12T11:42:19;94117.28;;;25.64;40.17
71194;BME280;58903;47.210;8.618;2023-03-12T11:45:50;94115.78;;;25.63;40.75
71194;BME280;58903;47.210;8.618;2023-03-12T11:48:42;94111.53;;;25.62;40.60
71194;BME280;58903;47.210;8.618;2023-03-12T12:00:08;94124.56;;;25.62;39.76
71194;BME280;58903;47.210;8.618;2023-03-12T12:12:08;94106.00;;;25.62;40.18
71194;BME280;58903;47.210;8.618;2023-03-12T12:15:23;94106.00;;;25.62;40.73
71194;BME280;58903;47.210;8.618;2023-03-12T12:29:35;94102.75;;;25.64;39.78
71194;BME280;58903;47.210;8.618;2023-03-12T12:32:16;94103.25;;;25.62;40.07
71194;BME280;58903;47.210;8.618;2023-03-12T12:38:02;94095.75;;;25.63;39.90
71194;BME280;58903;47.210;8.618;2023-03-12T12:40:41;94098.72;;;25.65;40.50
71194;BME280;58903;47.210;8.618;2023-03-12T12:43:35;94095.97;;;25.65;40.69
71194;BME280;58903;47.210;8.618;2023-03-12T12:46:14;94090.25;;;25.63;40.45
71194;BME280;58903;47.210;8.618;2023-03-12T12:49:14;94089.22;;;25.66;39.65
71194;BME280;58903;47.210;8.618;2023-03-12T12:52:04;94085.72;;;25.65;40.60
71194;BME280;58903;47.210;8.618;2023-03-12T12:57:43;94082.97;;;25.65;40.32
71194;BME280;58903;47.210;8.618;2023-03-12T13:00:24;94071.94;;;25.65;40.25
71194;BME280;58903;47.210;8.618;2023-03-12T13:02:56;94077.91;;;25.69;40.46
71194;BME280;58903;47.210;8.618;2023-03-12T13:08:00;94067.94;;;25.66;40.27
71194;BME280;58903;47.210;8.618;2023-03-12T13:10:55;94069.06;;;25.76;40.10
71194;BME280;58903;47.210;8.618;2023-03-12T13:13:23;94077.00;;;25.80;39.60
71194;BME280;58903;47.210;8.618;2023-03-12T13:15:50;94070.91;;;25.87;40.18
71194;BME280;58903;47.210;8.618;2023-03-12T13:18:25;94068.38;;;25.89;39.97
71194;BME280;58903;47.210;8.618;2023-03-12T13:21:00;94073.63;;;25.92;39.70
71194;BME280;58903;47.210;8.618;2023-03-12T13:31:56;94080.78;;;26.01;39.23
71194;BME280;58903;47.210;8.618;2023-03-12T13:37:00;94080.47;;;26.04;39.01
71194;BME280;58903;47.210;8.618;2023-03-12T13:39:43;94081.97;;;26.05;39.67
71194;BME280;58903;47.210;8.618;2023-03-12T13:42:35;94089.72;;;26.07;40.00
71194;BME280;58903;47.210;8.618;2023-03-12T13:48:45;94081.00;;;26.03;39.06
71194;BME280;58903;47.210;8.618;2023-03-12T13:51:23;94089.31;;;25.97;39.63
71194;BME280;58903;47.210;8.618;2023-03-12T13:54:02;94089.09;;;25.95;39.65
71194;BME280;58903;47.210;8.618;2023-03-12T13:56:53;94082.38;;;25.91;39.87
71194;BME280;58903;47.210;8.618;2023-03-12T13:59:26;94090.88;;;25.93;40.04
71194;BME280;58903;47.210;8.618;2023-03-12T14:02:01;94090.38;;;25.94;39.54
71194;BME280;58903;47.210;8.618;2023-03-12T14:04:36;94091.63;;;25.93;39.77
71194;BME280;58903;47.210;8.618;2023-03-12T14:07:27;94080.84;;;25.95;39.61
71194;BME280;58903;47.210;8.618;2023-03-12T14:18:30;94062.63;;;26.11;40.14
71194;BME280;58903;47.210;8.618;2023-03-12T14:21:03;94067.75;;;26.20;39.53
71194;BME280;58903;47.210;8.618;2023-03-12T14:23:40;94067.97;;;26.22;39.23
71194;BME280;58903;47.210;8.618;2023-03-12T14:26:20;94064.19;;;26.25;39.55
71194;BME280;58903;47.210;8.618;2023-03-12T14:29:03;94068.09;;;26.30;39.84
71194;BME280;58903;47.210;8.618;2023-03-12T14:31:33;94059.56;;;26.33;39.79
71194;BME280;58903;47.210;8.618;2023-03-12T14:34:07;94063.50;;;26.38;39.43
71194;BME280;58903;47.210;8.618;2023-03-12T14:39:53;94054.38;;;26.43;39.92
71194;BME280;58903;47.210;8.618;2023-03-12T14:42:32;94053.34;;;26.46;39.77
71194;BME280;58903;47.210;8.618;2023-03-12T14:45:16;94042.75;;;26.50;39.98
71194;BME280;58903;47.210;8.618;2023-03-12T14:47:51;94034.91;;;26.54;39.97
71194;BME280;58903;47.210;8.618;2023-03-12T14:50:43;94033.34;;;26.58;39.20
71194;BME280;58903;47.210;8.618;2023-03-12T14:53:23;94028.25;;;26.62;39.46
71194;BME280;58903;47.210;8.618;2023-03-12T14:58:30;94021.38;;;26.69;39.44
71194;BME280;58903;47.210;8.618;2023-03-12T15:01:06;94014.81;;;26.72;39.81
71194;BME280;58903;47.210;8.618;2023-03-12T15:03:44;94011.97;;;26.77;39.48
71194;BME280;58903;47.210;8.618;2023-03-12T15:09:03;94008.59;;;26.84;39.64
71194;BME280;58903;47.210;8.618;2023-03-12T15:11:32;94011.56;;;26.86;39.57
71194;BME280;58903;47.210;8.618;2023-03-12T15:14:17;94000.75;;;26.88;39.74
71194;BME280;58903;47.210;8.618;2023-03-12T15:16:51;94012.44;;;26.95;39.61
71194;BME280;58903;47.210;8.618;2023-03-12T15:19:38;94008.94;;;26.94;39.19
71194;BME280;58903;47.210;8.618;2023-03-12T15:22:12;94012.34;;;27.00;38.90
71194;BME280;58903;47.210;8.618;2023-03-12T15:24:41;94018.59;;;27.01;38.28
71194;BME280;58903;47.210;8.618;2023-03-12T15:29:56;94013.50;;;27.05;38.73
71194;BME280;58903;47.210;8.618;2023-03-12T15:32:27;94003.72;;;27.04;38.97
71194;BME280;58903;47.210;8.618;2023-03-12T15:34:57;94016.47;;;27.07;38.75
71194;BME280;58903;47.210;8.618;2023-03-12T15:37:32;94008.00;;;27.05;38.86
71194;BME280;58903;47.210;8.618;2023-03-12T15:40:20;94022.00;;;27.07;38.85
71194;BME280;58903;47.210;8.618;2023-03-12T15:42:48;94026.78;;;27.06;38.87